KTHV Airport Information

Runway Information
Runway 17 Length 5188 ft width 100 ft
Elevation 470 ft Threshold 800 ft Heading 155
Runway 35 Length 5188 ft Width 100 ft
Elevation 480 ft Threshold 740 ft Heading 335
Airport Frequencies
Type A/D Name HARRISBURG Frequency 124.1 MHZ
Type ASOS Name ASOS Frequency 119.275 MHZ
Type CLD Name CLNC DEL Frequency 121.65 MHZ
Type UNIC Name CTAF/UNICO Frequency 123 MHZ
Airport Navaids
Airport Weather Information & NOTAM
ADDS - METARS form results

(0904 UTC 21 April 2019)
Data provider http://aviationweather.gov/metar/data/
 
METAR text: KTHV 210853Z AUTO 20004KT 10SM OVC090 12/07 A2986 RMK AO2 SLP110 60000 T01170072 53009
Conditions at: KTHV (YORK , PA, US) observed 0853 UTC 21 April 2019
Temperature: 11.7°C (53°F)
Dewpoint: 7.2°C (45°F) [RH = 74%]
Pressure (altimeter): 29.86 inches Hg (1011.3 mb)
[Sea-level pressure: 1011.0 mb]
Winds: from the SSW (200 degrees) at 5 MPH (4 knots; 2.1 m/s)
Visibility: 10 or more miles (16+ km)
Ceiling: 9000 feet AGL
Clouds: overcast cloud deck at 9000 feet AGL
Weather: automated observation with no human augmentation;
there may or may not be significant weather present at this time